Time;durP1;ratioP1;P1;durP2;ratioP2;P2;SDS_P1;SDS_P2;PMS_P1;PMS_P2;Temp;Humidity;BMP_temperature;BMP_pressure;BME280_temperature;BME280_humidity;BME280_pressure;Samples;Min_cycle;Max_cycle;Signal;HPM_P1;HPM_P2
2022/04/05 00:00:05;;;;;;;13.20;6.63;;;;;;;;;;744660;186;918483;-62
2022/04/05 00:02:31;;;;;;;10.50;8.30;;;;;;;;;;750148;184;918320;-62
2022/04/05 00:04:57;;;;;;;11.27;8.30;;;;;;;;;;748378;185;939651;-61
2022/04/05 00:07:24;;;;;;;16.17;9.30;;;;;;;;;;749822;184;919595;-62
2022/04/05 00:09:49;;;;;;;13.87;7.10;;;;;;;;;;752127;186;918710;-61
2022/04/05 00:12:15;;;;;;;12.77;9.27;;;;;;;;;;746008;185;919328;-61
2022/04/05 00:14:40;;;;;;;22.80;13.30;;;;;;;;;;744013;184;919159;-61
2022/04/05 00:17:06;;;;;;;16.05;10.43;;;;;;;;;;749677;184;919745;-61
2022/04/05 00:19:32;;;;;;;19.37;11.20;;;;;;;;;;744144;186;919585;-61
2022/04/05 00:21:58;;;;;;;23.73;12.80;;;;;;;;;;743704;185;919647;-60
2022/04/05 00:24:24;;;;;;;14.03;9.43;;;;;;;;;;746350;187;919520;-61
2022/04/05 00:26:50;;;;;;;12.37;9.10;;;;;;;;;;745157;183;918990;-62
2022/04/05 00:29:16;;;;;;;24.30;13.03;;;;;;;;;;740880;187;919306;-61
2022/04/05 00:31:41;;;;;;;20.30;12.73;;;;;;;;;;739467;185;919208;-61
2022/04/05 00:34:07;;;;;;;21.50;11.73;;;;;;;;;;746959;187;919255;-61
2022/04/05 00:36:33;;;;;;;19.80;11.47;;;;;;;;;;743093;187;920307;-61
2022/04/05 00:38:59;;;;;;;15.17;10.70;;;;;;;;;;741535;187;919599;-60
2022/04/05 00:41:25;;;;;;;16.70;9.20;;;;;;;;;;747568;187;919354;-61
2022/04/05 00:43:51;;;;;;;26.10;13.67;;;;;;;;;;747520;185;919840;-63
2022/04/05 00:46:17;;;;;;;19.17;11.70;;;;;;;;;;744692;186;919163;-61
2022/04/05 00:48:48;;;;;;;18.08;7.65;;;;;;;;;;746820;185;937809;-61
2022/04/05 00:51:14;;;;;;;24.93;12.90;;;;;;;;;;749974;181;919335;-60
2022/04/05 00:53:40;;;;;;;10.57;6.93;;;;;;;;;;747700;185;920572;-62
2022/04/05 00:56:06;;;;;;;16.70;10.70;;;;;;;;;;743975;186;1120676;-61
2022/04/05 00:58:32;;;;;;;17.77;11.30;;;;;;;;;;753872;185;916163;-59
2022/04/05 01:00:58;;;;;;;20.48;11.68;;;;;;;;;;746491;185;920707;-60
2022/04/05 01:03:23;;;;;;;17.60;8.43;;;;;;;;;;748648;185;920002;-62
2022/04/05 01:05:50;;;;;;;16.67;9.65;;;;;;;;;;749959;187;949900;-60
2022/04/05 01:08:16;;;;;;;20.90;13.90;;;;;;;;;;753527;185;918397;-62
2022/04/05 01:10:41;;;;;;;21.40;12.47;;;;;;;;;;744457;185;921669;-62
2022/04/05 01:13:07;;;;;;;16.33;11.43;;;;;;;;;;746316;186;918934;-61
2022/04/05 01:15:33;;;;;;;17.93;11.20;;;;;;;;;;749676;186;880973;-62
2022/04/05 01:18:00;;;;;;;17.57;10.90;;;;;;;;;;745644;186;917977;-63
2022/04/05 01:20:26;;;;;;;18.93;10.40;;;;;;;;;;742820;186;918987;-62
2022/04/05 01:22:53;;;;;;;21.43;11.60;;;;;;;;;;751006;185;928315;-61
2022/04/05 01:25:17;;;;;;;17.25;12.32;;;;;;;;;;748167;186;918998;-61
2022/04/05 01:27:43;;;;;;;23.50;15.40;;;;;;;;;;742991;187;919403;-61
2022/04/05 01:30:10;;;;;;;24.00;14.60;;;;;;;;;;747551;184;919269;-60
2022/04/05 01:32:36;;;;;;;18.87;10.90;;;;;;;;;;744556;187;919954;-62
2022/04/05 01:35:02;;;;;;;19.20;12.40;;;;;;;;;;742674;187;920327;-62
2022/04/05 01:37:28;;;;;;;17.53;7.73;;;;;;;;;;741846;186;917800;-61
2022/04/05 01:39:53;;;;;;;26.30;16.60;;;;;;;;;;748692;184;918770;-61
2022/04/05 01:42:19;;;;;;;24.03;17.00;;;;;;;;;;741149;185;918848;-60
2022/04/05 01:44:45;;;;;;;26.30;17.37;;;;;;;;;;746244;186;916502;-60
2022/04/05 01:47:11;;;;;;;25.73;14.40;;;;;;;;;;750706;184;911887;-61
2022/04/05 01:49:37;;;;;;;24.70;15.60;;;;;;;;;;741671;183;921219;-62
2022/04/05 01:52:03;;;;;;;23.67;14.10;;;;;;;;;;745690;187;915557;-60
2022/04/05 01:54:29;;;;;;;23.70;14.80;;;;;;;;;;747476;185;1009610;-61
2022/04/05 01:56:54;;;;;;;21.57;15.57;;;;;;;;;;741427;185;914561;-62
2022/04/05 01:59:20;;;;;;;25.03;14.87;;;;;;;;;;740238;186;1023197;-61
2022/04/05 02:01:46;;;;;;;22.30;13.30;;;;;;;;;;741912;187;920044;-61
2022/04/05 02:04:12;;;;;;;22.97;14.93;;;;;;;;;;748139;184;919740;-63
2022/04/05 02:06:38;;;;;;;26.43;15.17;;;;;;;;;;745477;185;918399;-61
2022/04/05 02:09:04;;;;;;;24.10;14.37;;;;;;;;;;745323;186;918596;-61
2022/04/05 02:11:30;;;;;;;24.30;14.50;;;;;;;;;;750885;187;919190;-59
2022/04/05 02:13:55;;;;;;;22.20;13.27;;;;;;;;;;747750;186;919532;-60
2022/04/05 02:16:21;;;;;;;16.23;8.53;;;;;;;;;;747038;185;918695;-61
2022/04/05 02:18:47;;;;;;;24.03;15.17;;;;;;;;;;751443;186;919760;-60
2022/04/05 02:21:14;;;;;;;26.33;15.10;;;;;;;;;;746306;185;1022165;-60
2022/04/05 02:23:40;;;;;;;26.53;15.83;;;;;;;;;;745398;187;919187;-61
2022/04/05 02:26:06;;;;;;;23.70;15.40;;;;;;;;;;747764;186;919157;-60
2022/04/05 02:28:31;;;;;;;28.50;15.93;;;;;;;;;;754404;185;919804;-60
2022/04/05 02:30:58;;;;;;;20.03;12.77;;;;;;;;;;746130;185;918340;-60
2022/04/05 02:33:23;;;;;;;21.07;14.07;;;;;;;;;;744188;184;1020749;-60
2022/04/05 02:35:51;;;;;;;25.00;15.00;;;;;;;;;;754809;186;920540;-60
2022/04/05 02:38:15;;;;;;;17.00;10.97;;;;;;;;;;743709;187;919241;-59
2022/04/05 02:40:41;;;;;;;25.20;16.48;;;;;;;;;;742312;187;919507;-60
2022/04/05 02:43:06;;;;;;;26.17;17.43;;;;;;;;;;751543;185;922588;-59
2022/04/05 02:45:32;;;;;;;29.40;17.07;;;;;;;;;;746258;185;920662;-60
2022/04/05 02:47:58;;;;;;;23.50;13.87;;;;;;;;;;744240;187;918871;-60
2022/04/05 02:50:24;;;;;;;27.17;16.43;;;;;;;;;;743455;185;919145;-60
2022/04/05 02:52:50;;;;;;;22.97;15.87;;;;;;;;;;746693;187;919169;-61
2022/04/05 02:55:16;;;;;;;31.60;18.87;;;;;;;;;;740779;186;919489;-60
2022/04/05 02:57:41;;;;;;;23.47;16.27;;;;;;;;;;740547;186;919424;-61
2022/04/05 03:00:08;;;;;;;24.40;17.20;;;;;;;;;;756010;186;633809;-60
2022/04/05 03:02:34;;;;;;;26.37;18.43;;;;;;;;;;744540;187;919421;-60
2022/04/05 03:05:01;;;;;;;26.23;15.70;;;;;;;;;;744422;184;919604;-60
2022/04/05 03:07:26;;;;;;;20.43;13.73;;;;;;;;;;750396;185;919630;-60
2022/04/05 03:09:52;;;;;;;24.90;16.83;;;;;;;;;;747296;184;917509;-60
2022/04/05 03:12:18;;;;;;;28.60;15.90;;;;;;;;;;745809;185;918645;-60
2022/04/05 03:14:45;;;;;;;27.67;16.80;;;;;;;;;;742418;187;936350;-58
2022/04/05 03:17:10;;;;;;;25.50;14.70;;;;;;;;;;741978;186;919459;-59
2022/04/05 03:19:35;;;;;;;22.30;14.43;;;;;;;;;;738994;187;1020303;-60
2022/04/05 03:22:02;;;;;;;19.80;13.93;;;;;;;;;;748605;185;919415;-61
2022/04/05 03:24:27;;;;;;;18.60;9.40;;;;;;;;;;748687;186;917669;-59
2022/04/05 03:26:53;;;;;;;20.27;14.07;;;;;;;;;;746704;185;919425;-60
2022/04/05 03:29:19;;;;;;;23.33;15.50;;;;;;;;;;744703;184;918523;-60
2022/04/05 03:31:45;;;;;;;25.97;15.07;;;;;;;;;;748353;185;919161;-61
2022/04/05 03:34:10;;;;;;;17.57;12.47;;;;;;;;;;745743;186;919531;-60
2022/04/05 03:36:36;;;;;;;22.23;15.00;;;;;;;;;;742871;185;918533;-60
2022/04/05 03:39:02;;;;;;;24.27;13.52;;;;;;;;;;750137;184;918456;-61
2022/04/05 03:41:29;;;;;;;22.20;14.10;;;;;;;;;;742156;186;918687;-60
2022/04/05 03:43:54;;;;;;;18.10;12.20;;;;;;;;;;743392;186;1021749;-60
2022/04/05 03:46:20;;;;;;;16.93;9.83;;;;;;;;;;739671;187;1023287;-60
2022/04/05 03:48:46;;;;;;;27.43;14.60;;;;;;;;;;745758;185;919807;-60
2022/04/05 03:51:11;;;;;;;22.57;14.43;;;;;;;;;;745758;185;918974;-60
2022/04/05 03:53:37;;;;;;;19.80;12.43;;;;;;;;;;744277;184;919929;-60
2022/04/05 03:56:03;;;;;;;21.40;15.60;;;;;;;;;;748764;186;919050;-59
2022/04/05 03:58:29;;;;;;;14.30;9.87;;;;;;;;;;745674;185;918856;-60
2022/04/05 04:00:55;;;;;;;22.40;14.50;;;;;;;;;;745459;187;919071;-60
2022/04/05 04:03:21;;;;;;;17.37;11.47;;;;;;;;;;750362;187;918573;-60
2022/04/05 04:05:46;;;;;;;18.80;13.43;;;;;;;;;;744279;184;919326;-61
2022/04/05 04:08:12;;;;;;;19.47;14.80;;;;;;;;;;746500;184;918740;-59
2022/04/05 04:10:38;;;;;;;19.83;13.50;;;;;;;;;;744633;187;919637;-60
2022/04/05 04:13:04;;;;;;;24.50;12.27;;;;;;;;;;743095;187;763567;-61
2022/04/05 04:15:30;;;;;;;18.80;12.20;;;;;;;;;;746921;186;918633;-61
2022/04/05 04:17:56;;;;;;;17.50;11.80;;;;;;;;;;749012;185;918975;-61
2022/04/05 04:20:22;;;;;;;21.95;12.35;;;;;;;;;;749897;186;826867;-61
2022/04/05 04:22:48;;;;;;;21.70;13.60;;;;;;;;;;724787;189;917274;-61
2022/04/05 04:25:13;;;;;;;21.60;12.87;;;;;;;;;;746829;184;918838;-61
2022/04/05 04:27:39;;;;;;;26.30;14.67;;;;;;;;;;752526;185;919307;-61
2022/04/05 04:30:06;;;;;;;18.90;12.03;;;;;;;;;;748344;185;919664;-61
2022/04/05 04:32:32;;;;;;;22.83;14.30;;;;;;;;;;742900;188;919035;-61
2022/04/05 04:34:58;;;;;;;19.67;13.63;;;;;;;;;;744805;186;919193;-60
2022/04/05 04:37:24;;;;;;;21.00;12.90;;;;;;;;;;742447;187;920183;-59
2022/04/05 04:39:50;;;;;;;18.60;11.37;;;;;;;;;;745073;184;919298;-61
2022/04/05 04:42:16;;;;;;;24.73;12.77;;;;;;;;;;747956;187;634057;-61
2022/04/05 04:44:42;;;;;;;19.80;12.27;;;;;;;;;;753513;185;617034;-60
2022/04/05 04:47:08;;;;;;;21.67;13.57;;;;;;;;;;746252;186;910640;-61
2022/04/05 04:49:33;;;;;;;19.77;12.75;;;;;;;;;;743248;185;919844;-60
2022/04/05 04:51:59;;;;;;;22.00;8.40;;;;;;;;;;751276;186;916374;-60
2022/04/05 04:54:25;;;;;;;14.90;9.17;;;;;;;;;;745505;187;918357;-61
2022/04/05 04:56:51;;;;;;;20.00;12.97;;;;;;;;;;744435;186;1010563;-60
2022/04/05 04:59:17;;;;;;;16.10;10.80;;;;;;;;;;745052;187;919769;-59
2022/04/05 05:01:43;;;;;;;17.77;13.20;;;;;;;;;;746946;185;920081;-60
2022/04/05 05:04:09;;;;;;;17.70;10.43;;;;;;;;;;744129;184;632005;-61
2022/04/05 05:06:35;;;;;;;18.47;12.53;;;;;;;;;;739966;187;915449;-60
2022/04/05 05:09:01;;;;;;;14.53;8.23;;;;;;;;;;749408;186;915327;-61
2022/04/05 05:11:27;;;;;;;18.00;10.20;;;;;;;;;;747538;185;914826;-59
2022/04/05 05:13:54;;;;;;;12.18;8.15;;;;;;;;;;742167;186;929345;-61
2022/04/05 05:16:18;;;;;;;13.83;9.30;;;;;;;;;;749801;186;915548;-60
2022/04/05 05:18:44;;;;;;;13.57;8.57;;;;;;;;;;743439;187;919800;-59
2022/04/05 05:21:10;;;;;;;17.23;11.00;;;;;;;;;;747075;187;931562;-60
2022/04/05 05:23:37;;;;;;;21.33;11.50;;;;;;;;;;753264;186;919249;-60
2022/04/05 05:26:02;;;;;;;17.13;11.47;;;;;;;;;;753392;184;920647;-60
2022/04/05 05:28:28;;;;;;;16.90;8.57;;;;;;;;;;741554;184;1054644;-60
2022/04/05 05:30:53;;;;;;;19.93;12.40;;;;;;;;;;747872;185;914303;-60
2022/04/05 05:33:19;;;;;;;20.67;13.63;;;;;;;;;;750551;185;915986;-61
2022/04/05 05:35:45;;;;;;;11.70;8.60;;;;;;;;;;739205;185;2161639;-60
2022/04/05 05:38:11;;;;;;;16.67;11.30;;;;;;;;;;744459;186;919256;-61
2022/04/05 05:40:37;;;;;;;21.03;9.50;;;;;;;;;;751318;184;918780;-62
2022/04/05 05:43:03;;;;;;;8.23;6.30;;;;;;;;;;742489;187;923411;-61
2022/04/05 05:45:28;;;;;;;13.47;9.27;;;;;;;;;;743981;187;923729;-61
2022/04/05 05:47:54;;;;;;;15.43;11.43;;;;;;;;;;749174;187;918215;-60
2022/04/05 05:50:20;;;;;;;14.23;9.70;;;;;;;;;;742971;185;919692;-61
2022/04/05 05:52:46;;;;;;;11.20;6.37;;;;;;;;;;742193;187;918889;-59
2022/04/05 05:55:12;;;;;;;21.20;9.57;;;;;;;;;;747522;184;919681;-59
2022/04/05 05:57:38;;;;;;;13.05;9.60;;;;;;;;;;756499;182;919298;-60
2022/04/05 06:00:06;;;;;;;13.63;8.97;;;;;;;;;;744545;186;919301;-60
2022/04/05 06:02:32;;;;;;;10.80;7.13;;;;;;;;;;746008;185;919157;-60
2022/04/05 06:04:58;;;;;;;12.73;8.70;;;;;;;;;;750008;186;1018518;-60
2022/04/05 06:07:24;;;;;;;13.60;9.13;;;;;;;;;;745316;185;918646;-60
2022/04/05 06:09:49;;;;;;;16.77;8.60;;;;;;;;;;746166;187;918310;-61
2022/04/05 06:12:15;;;;;;;15.50;10.57;;;;;;;;;;750131;187;919102;-60
2022/04/05 06:14:41;;;;;;;15.03;8.93;;;;;;;;;;743746;187;923476;-60
2022/04/05 06:17:07;;;;;;;13.97;8.10;;;;;;;;;;747138;186;627151;-61
2022/04/05 06:19:33;;;;;;;20.83;10.17;;;;;;;;;;749020;186;640496;-60
2022/04/05 06:21:59;;;;;;;14.60;8.40;;;;;;;;;;749335;183;921116;-61
2022/04/05 06:24:24;;;;;;;10.07;5.73;;;;;;;;;;745985;185;918496;-60
2022/04/05 06:26:50;;;;;;;17.30;10.20;;;;;;;;;;741953;184;919061;-60
2022/04/05 06:29:16;;;;;;;14.07;6.80;;;;;;;;;;750223;184;624426;-60
2022/04/05 06:31:42;;;;;;;15.07;10.40;;;;;;;;;;745493;187;625191;-60
2022/04/05 06:34:08;;;;;;;14.60;9.80;;;;;;;;;;744266;184;916688;-60
2022/04/05 06:36:34;;;;;;;13.13;8.43;;;;;;;;;;744395;187;925000;-60
2022/04/05 06:38:59;;;;;;;8.97;5.53;;;;;;;;;;720370;191;919468;-60
2022/04/05 06:41:25;;;;;;;10.33;7.00;;;;;;;;;;738338;186;1021407;-60
2022/04/05 06:43:51;;;;;;;8.50;5.65;;;;;;;;;;749424;185;919830;-61
2022/04/05 06:46:17;;;;;;;13.53;8.80;;;;;;;;;;745295;186;918956;-61
2022/04/05 06:48:43;;;;;;;16.13;9.43;;;;;;;;;;741957;185;919838;-60
2022/04/05 06:51:09;;;;;;;13.77;8.67;;;;;;;;;;747058;187;919568;-61
2022/04/05 06:53:35;;;;;;;10.77;6.90;;;;;;;;;;753597;185;919278;-61
2022/04/05 06:56:00;;;;;;;14.83;10.40;;;;;;;;;;745768;185;917323;-60
2022/04/05 06:58:26;;;;;;;14.67;10.57;;;;;;;;;;741373;185;929972;-61
2022/04/05 07:00:52;;;;;;;16.13;9.30;;;;;;;;;;745961;187;919507;-60
2022/04/05 07:03:18;;;;;;;15.83;9.90;;;;;;;;;;746121;187;781324;-60
2022/04/05 07:05:44;;;;;;;13.10;9.00;;;;;;;;;;743399;186;916330;-61
2022/04/05 07:08:11;;;;;;;14.93;10.40;;;;;;;;;;749896;186;923134;-61
2022/04/05 07:10:37;;;;;;;10.75;5.97;;;;;;;;;;742689;187;919389;-61
2022/04/05 07:13:02;;;;;;;13.90;9.50;;;;;;;;;;741582;187;919147;-60
2022/04/05 07:15:28;;;;;;;15.50;10.27;;;;;;;;;;742889;186;926267;-60
2022/04/05 07:17:54;;;;;;;11.50;9.10;;;;;;;;;;751004;185;1123945;-60
2022/04/05 07:20:20;;;;;;;16.20;11.20;;;;;;;;;;740766;185;920544;-60
2022/04/05 07:22:46;;;;;;;10.50;7.10;;;;;;;;;;741374;186;1021338;-60
2022/04/05 07:25:12;;;;;;;14.43;9.90;;;;;;;;;;749225;183;952138;-60
2022/04/05 07:27:37;;;;;;;13.62;6.93;;;;;;;;;;743722;184;917845;-61
2022/04/05 07:30:04;;;;;;;7.73;5.23;;;;;;;;;;744595;187;913231;-60
2022/04/05 07:32:34;;;;;;;17.47;10.90;;;;;;;;;;746735;186;919518;-62
2022/04/05 07:35:00;;;;;;;8.03;5.70;;;;;;;;;;746379;184;919136;-59
2022/04/05 07:37:26;;;;;;;11.30;7.40;;;;;;;;;;740472;187;918553;-59
2022/04/05 07:39:52;;;;;;;10.13;6.23;;;;;;;;;;739558;186;919377;-61
2022/04/05 07:42:18;;;;;;;18.20;9.48;;;;;;;;;;747943;186;918614;-60
2022/04/05 07:44:43;;;;;;;16.47;10.70;;;;;;;;;;742144;184;1021381;-60
2022/04/05 07:47:09;;;;;;;12.75;7.72;;;;;;;;;;737130;189;919760;-60
2022/04/05 07:49:35;;;;;;;9.30;6.17;;;;;;;;;;742612;189;918935;-61
2022/04/05 07:52:01;;;;;;;12.90;8.80;;;;;;;;;;727203;191;918481;-60
2022/04/05 07:54:27;;;;;;;8.40;4.80;;;;;;;;;;747166;186;918679;-61
2022/04/05 07:56:53;;;;;;;11.93;6.68;;;;;;;;;;748408;186;919951;-59
2022/04/05 07:59:19;;;;;;;13.43;7.57;;;;;;;;;;747643;185;919813;-60
2022/04/05 08:01:46;;;;;;;13.70;8.60;;;;;;;;;;744017;187;919138;-61
2022/04/05 08:04:11;;;;;;;13.40;8.13;;;;;;;;;;744404;185;919675;-61
2022/04/05 08:06:36;;;;;;;15.20;8.87;;;;;;;;;;750180;185;918464;-60
2022/04/05 08:09:03;;;;;;;13.27;8.73;;;;;;;;;;746312;185;919618;-60
2022/04/05 08:11:29;;;;;;;13.40;10.37;;;;;;;;;;745880;184;919530;-60
2022/04/05 08:13:56;;;;;;;14.07;9.20;;;;;;;;;;748689;186;919026;-60
2022/04/05 08:16:20;;;;;;;14.17;8.00;;;;;;;;;;746528;184;919500;-60
2022/04/05 08:18:46;;;;;;;10.77;7.53;;;;;;;;;;745573;184;918637;-59
2022/04/05 08:21:12;;;;;;;14.50;8.40;;;;;;;;;;748146;185;919283;-61
2022/04/05 08:23:38;;;;;;;15.17;8.67;;;;;;;;;;744474;184;918148;-60
2022/04/05 08:26:04;;;;;;;11.43;6.53;;;;;;;;;;738488;186;919455;-61
2022/04/05 08:28:30;;;;;;;17.63;10.30;;;;;;;;;;741696;187;918469;-62
2022/04/05 08:30:55;;;;;;;14.10;9.07;;;;;;;;;;752533;186;919162;-61
2022/04/05 08:33:21;;;;;;;12.93;7.77;;;;;;;;;;743833;186;918495;-61
2022/04/05 08:35:47;;;;;;;14.82;5.50;;;;;;;;;;744292;187;919914;-60
2022/04/05 08:38:13;;;;;;;10.27;7.40;;;;;;;;;;748146;185;918952;-61
2022/04/05 08:40:39;;;;;;;9.63;7.00;;;;;;;;;;742870;187;918353;-61
2022/04/05 08:43:05;;;;;;;7.47;5.23;;;;;;;;;;741689;186;920308;-61
2022/04/05 08:45:31;;;;;;;9.23;7.37;;;;;;;;;;746612;187;847961;-59
2022/04/05 08:47:56;;;;;;;11.17;5.87;;;;;;;;;;718834;193;919035;-60
2022/04/05 08:50:23;;;;;;;9.90;6.70;;;;;;;;;;714034;189;915055;-61
2022/04/05 08:52:49;;;;;;;7.70;5.00;;;;;;;;;;740653;186;1018318;-60
2022/04/05 08:55:15;;;;;;;9.73;5.07;;;;;;;;;;746902;182;916364;-60
2022/04/05 08:57:40;;;;;;;7.50;5.43;;;;;;;;;;745111;185;658809;-60
2022/04/05 09:00:07;;;;;;;6.67;5.20;;;;;;;;;;745302;186;916712;-61
2022/04/05 09:02:33;;;;;;;6.47;5.40;;;;;;;;;;745134;186;916773;-60
2022/04/05 09:04:58;;;;;;;5.43;4.80;;;;;;;;;;744841;185;913647;-60
2022/04/05 09:07:24;;;;;;;8.33;6.57;;;;;;;;;;746517;186;929283;-61
2022/04/05 09:09:51;;;;;;;8.10;4.60;;;;;;;;;;753882;184;625146;-61
2022/04/05 09:12:17;;;;;;;6.93;5.50;;;;;;;;;;745870;183;918985;-60
2022/04/05 09:14:43;;;;;;;14.60;5.80;;;;;;;;;;744448;186;919556;-60
2022/04/05 09:17:09;;;;;;;9.80;4.83;;;;;;;;;;740445;184;920194;-59
2022/04/05 09:19:35;;;;;;;5.80;3.67;;;;;;;;;;742777;185;919410;-60
2022/04/05 09:22:03;;;;;;;8.07;5.80;;;;;;;;;;742430;187;919312;-60
2022/04/05 09:24:33;;;;;;;6.97;5.20;;;;;;;;;;739832;187;919855;-59
2022/04/05 09:26:58;;;;;;;5.27;4.40;;;;;;;;;;746218;186;919700;-59
2022/04/05 09:29:24;;;;;;;9.33;6.30;;;;;;;;;;742146;187;918916;-60
2022/04/05 09:31:50;;;;;;;7.57;5.63;;;;;;;;;;736164;187;919361;-60
2022/04/05 09:34:19;;;;;;;6.37;4.35;;;;;;;;;;741826;187;925831;-60
2022/04/05 09:36:43;;;;;;;7.30;5.13;;;;;;;;;;747278;186;918983;-60
2022/04/05 09:39:08;;;;;;;9.00;6.27;;;;;;;;;;746851;184;918748;-60
2022/04/05 09:41:34;;;;;;;8.07;5.43;;;;;;;;;;743554;184;1020586;-59
2022/04/05 09:44:00;;;;;;;8.37;6.00;;;;;;;;;;749554;184;1043824;-59
2022/04/05 09:46:27;;;;;;;7.10;5.30;;;;;;;;;;746576;184;918820;-60
2022/04/05 09:49:07;;;;;;;15.23;6.90;;;;;;;;;;745443;187;916993;-60
2022/04/05 09:51:36;;;;;;;9.97;4.80;;;;;;;;;;743365;187;918682;-60
2022/04/05 09:54:02;;;;;;;9.60;6.30;;;;;;;;;;744745;187;918036;-60
2022/04/05 09:56:29;;;;;;;9.33;6.70;;;;;;;;;;740001;185;919371;-60
2022/04/05 09:58:55;;;;;;;6.97;5.43;;;;;;;;;;739142;187;918714;-59
2022/04/05 10:01:21;;;;;;;9.00;5.63;;;;;;;;;;740943;187;919380;-61
2022/04/05 10:03:53;;;;;;;8.27;5.60;;;;;;;;;;748137;185;920093;-60
2022/04/05 10:06:18;;;;;;;10.67;5.27;;;;;;;;;;743727;187;920834;-61
2022/04/05 10:08:44;;;;;;;10.70;6.78;;;;;;;;;;742821;187;918088;-60
2022/04/05 10:11:11;;;;;;;7.47;5.10;;;;;;;;;;748329;185;1020290;-64
2022/04/05 10:13:36;;;;;;;7.67;5.07;;;;;;;;;;744950;186;919656;-61
2022/04/05 10:16:02;;;;;;;10.50;5.43;;;;;;;;;;746447;183;919488;-62
2022/04/05 10:18:31;;;;;;;7.00;5.30;;;;;;;;;;742835;185;918338;-61
2022/04/05 10:20:57;;;;;;;6.97;5.67;;;;;;;;;;747827;187;920210;-61
2022/04/05 10:23:23;;;;;;;6.90;4.93;;;;;;;;;;741521;186;1018833;-60
2022/04/05 10:25:48;;;;;;;6.90;5.37;;;;;;;;;;741157;185;920271;-60
2022/04/05 10:28:15;;;;;;;5.53;4.77;;;;;;;;;;748887;187;881511;-61
2022/04/05 10:30:41;;;;;;;7.77;5.90;;;;;;;;;;744037;185;916360;-61
2022/04/05 10:33:07;;;;;;;8.00;6.03;;;;;;;;;;745268;184;914943;-60
2022/04/05 10:35:33;;;;;;;7.00;5.37;;;;;;;;;;749280;186;915496;-60
2022/04/05 10:38:05;;;;;;;6.50;4.60;;;;;;;;;;745697;185;914982;-61
2022/04/05 10:40:31;;;;;;;5.80;4.53;;;;;;;;;;746320;187;918902;-60
2022/04/05 10:42:57;;;;;;;6.30;3.63;;;;;;;;;;747206;185;918947;-61
2022/04/05 10:45:23;;;;;;;7.63;5.80;;;;;;;;;;750388;187;919960;-60
2022/04/05 10:47:55;;;;;;;8.23;6.70;;;;;;;;;;743360;185;917198;-59
2022/04/05 10:50:21;;;;;;;6.80;5.10;;;;;;;;;;743237;188;919850;-61
2022/04/05 10:52:47;;;;;;;7.93;5.93;;;;;;;;;;754523;185;628630;-60
2022/04/05 10:55:13;;;;;;;7.83;5.70;;;;;;;;;;754525;184;619763;-60
2022/04/05 10:57:38;;;;;;;4.83;4.27;;;;;;;;;;746790;185;919790;-61
2022/04/05 11:00:07;;;;;;;8.13;5.90;;;;;;;;;;746566;184;919105;-60
2022/04/05 11:02:38;;;;;;;11.50;6.03;;;;;;;;;;746535;186;918890;-60
2022/04/05 11:05:04;;;;;;;7.32;6.10;;;;;;;;;;749727;186;919337;-60
2022/04/05 11:07:29;;;;;;;7.40;5.73;;;;;;;;;;743037;186;919269;-60
2022/04/05 11:09:55;;;;;;;7.30;6.27;;;;;;;;;;744622;184;920315;-60
2022/04/05 11:12:23;;;;;;;5.87;4.30;;;;;;;;;;746950;184;920637;-60
2022/04/05 11:14:49;;;;;;;6.70;5.10;;;;;;;;;;747195;187;918745;-60
2022/04/05 11:17:14;;;;;;;9.50;7.03;;;;;;;;;;743633;187;919674;-62
2022/04/05 11:19:39;;;;;;;12.40;6.30;;;;;;;;;;749758;187;919960;-60
2022/04/05 11:22:05;;;;;;;8.13;4.27;;;;;;;;;;744303;185;919775;-60
2022/04/05 11:24:37;;;;;;;5.72;4.05;;;;;;;;;;745353;185;941095;-60
2022/04/05 11:27:09;;;;;;;5.97;4.57;;;;;;;;;;751431;185;919474;-60
2022/04/05 11:29:34;;;;;;;8.43;6.50;;;;;;;;;;746852;186;919459;-60
2022/04/05 11:32:07;;;;;;;9.67;6.67;;;;;;;;;;740511;187;919377;-60
2022/04/05 11:34:35;;;;;;;7.40;6.03;;;;;;;;;;740546;186;919030;-61
2022/04/05 11:37:01;;;;;;;7.27;5.30;;;;;;;;;;740919;187;919635;-60
2022/04/05 11:39:26;;;;;;;9.87;8.13;;;;;;;;;;745918;185;918745;-60
2022/04/05 11:41:56;;;;;;;7.30;6.10;;;;;;;;;;743471;185;921161;-60
2022/04/05 11:44:22;;;;;;;7.03;4.57;;;;;;;;;;743219;187;919445;-61
2022/04/05 11:46:48;;;;;;;8.30;5.90;;;;;;;;;;739404;187;920018;-60
2022/04/05 11:49:14;;;;;;;7.67;5.27;;;;;;;;;;745316;183;1021514;-60
2022/04/05 11:51:43;;;;;;;6.43;5.60;;;;;;;;;;742700;184;919454;-61
2022/04/05 11:54:10;;;;;;;8.57;5.87;;;;;;;;;;744413;186;919350;-60
2022/04/05 11:56:35;;;;;;;6.87;5.37;;;;;;;;;;748005;187;918968;-60
2022/04/05 11:59:01;;;;;;;12.67;6.93;;;;;;;;;;735840;187;2645179;-60
2022/04/05 12:01:28;;;;;;;8.25;6.50;;;;;;;;;;744959;185;1018537;-61
2022/04/05 12:03:57;;;;;;;7.78;6.45;;;;;;;;;;745501;184;915918;-60
2022/04/05 12:06:23;;;;;;;7.77;6.50;;;;;;;;;;748983;186;914559;-62
2022/04/05 12:08:49;;;;;;;8.63;6.05;;;;;;;;;;744812;186;915526;-60
2022/04/05 12:11:15;;;;;;;8.10;6.70;;;;;;;;;;738458;187;1021715;-60
2022/04/05 12:13:40;;;;;;;8.97;6.47;;;;;;;;;;743535;185;918800;-60
2022/04/05 12:16:06;;;;;;;6.53;4.90;;;;;;;;;;717766;193;919239;-60
2022/04/05 12:18:32;;;;;;;11.50;6.30;;;;;;;;;;740112;186;918578;-60
2022/04/05 12:20:58;;;;;;;8.17;7.30;;;;;;;;;;749235;186;929788;-60
2022/04/05 12:23:24;;;;;;;6.50;3.57;;;;;;;;;;746371;187;918543;-61
2022/04/05 12:25:56;;;;;;;7.30;6.10;;;;;;;;;;745265;185;918879;-60
2022/04/05 12:28:22;;;;;;;8.17;6.00;;;;;;;;;;743774;185;919267;-60
2022/04/05 12:30:47;;;;;;;9.60;6.83;;;;;;;;;;744915;187;922320;-61
2022/04/05 12:33:13;;;;;;;8.37;6.73;;;;;;;;;;720732;191;919312;-60
2022/04/05 12:35:39;;;;;;;10.43;5.77;;;;;;;;;;734271;185;1033170;-60
2022/04/05 12:38:05;;;;;;;10.50;6.53;;;;;;;;;;750795;186;915896;-63
2022/04/05 12:40:31;;;;;;;7.43;5.75;;;;;;;;;;745748;186;920012;-62
2022/04/05 12:42:57;;;;;;;11.10;6.23;;;;;;;;;;742592;186;919902;-61
2022/04/05 12:45:24;;;;;;;7.50;5.60;;;;;;;;;;742402;185;1500806;-60
2022/04/05 12:47:50;;;;;;;9.40;6.40;;;;;;;;;;754408;183;921630;-62
2022/04/05 12:50:17;;;;;;;6.77;5.60;;;;;;;;;;744821;185;949639;-60
2022/04/05 12:52:44;;;;;;;7.97;5.47;;;;;;;;;;739907;185;919150;-60
2022/04/05 12:55:12;;;;;;;8.33;5.60;;;;;;;;;;744449;186;918840;-61
2022/04/05 12:57:38;;;;;;;6.50;4.47;;;;;;;;;;746527;185;911404;-61
2022/04/05 13:00:16;;;;;;;6.50;5.40;;;;;;;;;;746042;187;924986;-60
2022/04/05 13:02:43;;;;;;;5.47;3.57;;;;;;;;;;745396;185;919254;-61
2022/04/05 13:06:20;;;;;;;5.73;4.63;;;;;;;;;;748797;185;924339;-60
2022/04/05 13:07:35;;;;;;;6.53;5.20;;;;;;;;;;743557;186;908682;-59
2022/04/05 13:10:01;;;;;;;6.83;3.80;;;;;;;;;;742805;183;915279;-61
2022/04/05 13:12:27;;;;;;;5.60;4.90;;;;;;;;;;743844;184;918225;-60
2022/04/05 13:14:53;;;;;;;6.00;4.90;;;;;;;;;;748991;186;920189;-60
2022/04/05 13:17:18;;;;;;;9.00;5.80;;;;;;;;;;742545;185;918018;-59
2022/04/05 13:19:55;;;;;;;5.93;4.60;;;;;;;;;;747256;187;916833;-60
2022/04/05 13:22:20;;;;;;;6.90;3.97;;;;;;;;;;745362;187;919158;-60
2022/04/05 13:24:47;;;;;;;8.07;4.60;;;;;;;;;;753770;183;919583;-60
2022/04/05 13:27:13;;;;;;;7.77;5.60;;;;;;;;;;743188;185;919787;-60
2022/04/05 13:29:42;;;;;;;6.60;3.60;;;;;;;;;;743012;185;919116;-59
2022/04/05 13:32:06;;;;;;;7.33;4.47;;;;;;;;;;746826;187;815035;-61
2022/04/05 13:34:34;;;;;;;8.37;5.17;;;;;;;;;;745438;185;918381;-60
2022/04/05 13:37:00;;;;;;;6.60;5.40;;;;;;;;;;743710;185;922145;-61
2022/04/05 13:39:27;;;;;;;6.47;4.93;;;;;;;;;;746196;187;919801;-61
2022/04/05 13:41:52;;;;;;;4.73;3.87;;;;;;;;;;734115;187;922283;-61
2022/04/05 13:44:19;;;;;;;7.67;5.73;;;;;;;;;;740877;187;918362;-62
2022/04/05 13:46:43;;;;;;;10.10;5.20;;;;;;;;;;743362;185;1021540;-60
2022/04/05 13:49:09;;;;;;;7.53;4.80;;;;;;;;;;747371;186;919603;-61
2022/04/05 13:51:35;;;;;;;4.10;3.03;;;;;;;;;;747030;184;920320;-61
2022/04/05 13:54:01;;;;;;;6.47;4.40;;;;;;;;;;743207;188;920242;-61
2022/04/05 13:56:27;;;;;;;7.23;4.20;;;;;;;;;;745639;188;918485;-61
2022/04/05 13:58:55;;;;;;;4.47;3.70;;;;;;;;;;745469;186;917600;-60
2022/04/05 14:01:19;;;;;;;4.60;3.80;;;;;;;;;;745475;185;920029;-60
2022/04/05 14:03:44;;;;;;;6.30;4.23;;;;;;;;;;751490;185;918968;-60
2022/04/05 14:06:10;;;;;;;5.83;4.93;;;;;;;;;;743888;186;920217;-61
2022/04/05 14:08:36;;;;;;;5.30;4.07;;;;;;;;;;743855;187;921551;-60